Joyce, Washington
Current Conditions -  °F | °C
As of 9:53 PM on Friday 28 Nov 2014 (Local Time) from KCLM Reporting Station
Light Snow Light Snow  
Wind Chill: 28°   Ceiling: 2100
Heat Index: 36°   Visibility: 5mi
Dew Point: 31°   Wind: 12mph
Humidity: 82%   Direction: 280°W
Pressure: 29.51"   Gusts: 23mph
Location:  48.14°N, 123.74°W
Report Text: KCLM 290553Z AUTO 28010G20KT 5SM -SN OVC021 02/M01 A2951 RMK AO2 RAB16E50SNB50 SLP995 P0000 60000 T00221006 10061 20022 53014 $
Loading
Personal Weather Stations






























Interactive Weather Map New forecast layout! Learn more

10-Day Weather Forecast

Advertisements
Track Severe Weather on mobile